sensor_id;sensor_type;location;lat;lon;timestamp;pressure;altitude;pressure_sealevel;temperature;humidity
8697;BME280;4385;48.848;8.924;2022-12-07T00:01:34;97424.31;;;17.71;100.00
8697;BME280;4385;48.848;8.924;2022-12-07T00:04:02;97423.44;;;17.72;100.00
8697;BME280;4385;48.848;8.924;2022-12-07T00:06:33;97419.22;;;17.71;100.00
8697;BME280;4385;48.848;8.924;2022-12-07T00:08:59;97420.06;;;17.72;100.00
8697;BME280;4385;48.848;8.924;2022-12-07T00:11:25;97418.34;;;17.72;100.00
8697;BME280;4385;48.848;8.924;2022-12-07T00:13:53;97421.72;;;17.73;100.00
8697;BME280;4385;48.848;8.924;2022-12-07T00:16:20;97419.16;;;17.74;100.00
8697;BME280;4385;48.848;8.924;2022-12-07T00:18:46;97421.63;;;17.77;100.00
8697;BME280;4385;48.848;8.924;2022-12-07T00:21:14;97417.34;;;17.79;100.00
8697;BME280;4385;48.848;8.924;2022-12-07T00:23:40;97415.69;;;17.78;100.00
8697;BME280;4385;48.848;8.924;2022-12-07T00:26:26;97411.44;;;17.77;100.00
8697;BME280;4385;48.848;8.924;2022-12-07T00:28:55;97416.47;;;17.80;100.00
8697;BME280;4385;48.848;8.924;2022-12-07T00:31:23;97406.28;;;17.80;100.00
8697;BME280;4385;48.848;8.924;2022-12-07T00:33:49;97409.69;;;17.81;100.00
8697;BME280;4385;48.848;8.924;2022-12-07T00:36:18;97414.75;;;17.82;100.00
8697;BME280;4385;48.848;8.924;2022-12-07T00:38:44;97411.25;;;17.87;100.00
8697;BME280;4385;48.848;8.924;2022-12-07T00:41:14;97414.56;;;17.90;100.00
8697;BME280;4385;48.848;8.924;2022-12-07T00:43:41;97410.28;;;17.92;100.00
8697;BME280;4385;48.848;8.924;2022-12-07T00:46:07;97411.97;;;17.93;100.00
8697;BME280;4385;48.848;8.924;2022-12-07T00:48:33;97411.94;;;17.95;100.00
8697;BME280;4385;48.848;8.924;2022-12-07T00:50:58;97412.78;;;17.95;100.00
8697;BME280;4385;48.848;8.924;2022-12-07T00:53:24;97410.25;;;17.94;100.00
8697;BME280;4385;48.848;8.924;2022-12-07T00:55:49;97419.56;;;17.95;100.00
8697;BME280;4385;48.848;8.924;2022-12-07T00:58:15;97420.47;;;17.94;100.00
8697;BME280;4385;48.848;8.924;2022-12-07T01:00:42;97418.75;;;17.93;100.00
8697;BME280;4385;48.848;8.924;2022-12-07T01:03:10;97416.25;;;17.91;100.00
8697;BME280;4385;48.848;8.924;2022-12-07T01:05:36;97418.75;;;17.93;100.00
8697;BME280;4385;48.848;8.924;2022-12-07T01:08:02;97418.75;;;17.93;100.00
8697;BME280;4385;48.848;8.924;2022-12-07T01:10:27;97418.75;;;17.93;100.00
8697;BME280;4385;48.848;8.924;2022-12-07T01:12:55;97415.44;;;17.91;100.00
8697;BME280;4385;48.848;8.924;2022-12-07T01:15:20;97420.53;;;17.91;100.00
8697;BME280;4385;48.848;8.924;2022-12-07T01:17:45;97413.69;;;17.91;100.00
8697;BME280;4385;48.848;8.924;2022-12-07T01:20:11;97417.09;;;17.92;100.00
8697;BME280;4385;48.848;8.924;2022-12-07T01:22:37;97415.56;;;17.85;100.00
8697;BME280;4385;48.848;8.924;2022-12-07T01:25:04;97407.88;;;17.86;100.00
8697;BME280;4385;48.848;8.924;2022-12-07T01:27:29;97415.50;;;17.88;100.00
8697;BME280;4385;48.848;8.924;2022-12-07T01:29:55;97423.16;;;17.86;100.00
8697;BME280;4385;48.848;8.924;2022-12-07T01:32:20;97425.72;;;17.86;100.00
8697;BME280;4385;48.848;8.924;2022-12-07T01:34:47;97425.69;;;17.88;100.00
8697;BME280;4385;48.848;8.924;2022-12-07T01:37:13;97423.13;;;17.88;100.00
8697;BME280;4385;48.848;8.924;2022-12-07T01:39:38;97420.59;;;17.88;100.00
8697;BME280;4385;48.848;8.924;2022-12-07T01:42:03;97423.09;;;17.89;100.00
8697;BME280;4385;48.848;8.924;2022-12-07T01:44:29;97430.72;;;17.91;100.00
8697;BME280;4385;48.848;8.924;2022-12-07T01:47:04;97429.88;;;17.90;100.00
8697;BME280;4385;48.848;8.924;2022-12-07T01:49:39;97429.88;;;17.90;100.00
8697;BME280;4385;48.848;8.924;2022-12-07T01:52:22;97427.34;;;17.89;100.00
8697;BME280;4385;48.848;8.924;2022-12-07T01:54:55;97427.34;;;17.89;100.00
8697;BME280;4385;48.848;8.924;2022-12-07T01:57:22;97432.47;;;17.89;100.00
8697;BME280;4385;48.848;8.924;2022-12-07T01:59:49;97426.50;;;17.88;100.00
8697;BME280;4385;48.848;8.924;2022-12-07T02:02:23;97428.22;;;17.89;100.00
8697;BME280;4385;48.848;8.924;2022-12-07T02:04:52;97425.63;;;17.91;100.00
8697;BME280;4385;48.848;8.924;2022-12-07T02:07:20;97425.63;;;17.91;100.00
8697;BME280;4385;48.848;8.924;2022-12-07T02:09:46;97418.81;;;17.90;100.00
8697;BME280;4385;48.848;8.924;2022-12-07T02:12:11;97421.38;;;17.90;100.00
8697;BME280;4385;48.848;8.924;2022-12-07T02:14:37;97427.31;;;17.90;100.00
8697;BME280;4385;48.848;8.924;2022-12-07T02:17:22;97422.19;;;17.92;100.00
8697;BME280;4385;48.848;8.924;2022-12-07T02:23:12;97424.78;;;17.90;100.00
8697;BME280;4385;48.848;8.924;2022-12-07T02:28:33;97420.53;;;17.91;100.00
8697;BME280;4385;48.848;8.924;2022-12-07T02:31:03;97420.53;;;17.91;100.00
8697;BME280;4385;48.848;8.924;2022-12-07T02:33:41;97404.31;;;17.93;100.00
8697;BME280;4385;48.848;8.924;2022-12-07T02:36:25;97408.56;;;17.93;100.00
8697;BME280;4385;48.848;8.924;2022-12-07T02:41:34;97404.25;;;17.97;100.00
8697;BME280;4385;48.848;8.924;2022-12-07T02:44:07;97405.09;;;17.97;100.00
8697;BME280;4385;48.848;8.924;2022-12-07T02:46:40;97410.19;;;17.97;100.00
8697;BME280;4385;48.848;8.924;2022-12-07T02:49:07;97401.66;;;17.98;100.00
8697;BME280;4385;48.848;8.924;2022-12-07T02:51:34;97397.41;;;17.99;100.00
8697;BME280;4385;48.848;8.924;2022-12-07T02:54:11;97402.47;;;18.00;100.00
8697;BME280;4385;48.848;8.924;2022-12-07T02:56:48;97395.63;;;18.02;100.00
8697;BME280;4385;48.848;8.924;2022-12-07T03:02:32;97393.78;;;18.09;100.00
8697;BME280;4385;48.848;8.924;2022-12-07T03:08:06;97398.00;;;18.12;100.00
8697;BME280;4385;48.848;8.924;2022-12-07T03:11:05;97390.31;;;18.13;100.00
8697;BME280;4385;48.848;8.924;2022-12-07T03:13:50;97395.41;;;18.13;100.00
8697;BME280;4385;48.848;8.924;2022-12-07T03:16:41;97387.78;;;18.12;100.00
8697;BME280;4385;48.848;8.924;2022-12-07T03:19:13;97394.63;;;18.10;100.00
8697;BME280;4385;48.848;8.924;2022-12-07T03:21:42;97401.44;;;18.09;100.00
8697;BME280;4385;48.848;8.924;2022-12-07T03:24:13;97394.66;;;18.08;100.00
8697;BME280;4385;48.848;8.924;2022-12-07T03:26:48;97383.66;;;18.06;100.00
8697;BME280;4385;48.848;8.924;2022-12-07T03:29:21;97381.09;;;18.06;100.00
8697;BME280;4385;48.848;8.924;2022-12-07T03:31:55;97379.41;;;18.06;100.00
8697;BME280;4385;48.848;8.924;2022-12-07T03:34:28;97384.50;;;18.06;100.00
8697;BME280;4385;48.848;8.924;2022-12-07T03:37:00;97384.50;;;18.06;100.00
8697;BME280;4385;48.848;8.924;2022-12-07T03:42:28;97385.31;;;18.07;100.00
8697;BME280;4385;48.848;8.924;2022-12-07T03:44:54;97386.16;;;18.07;100.00
8697;BME280;4385;48.848;8.924;2022-12-07T03:47:52;97380.19;;;18.08;100.00
8697;BME280;4385;48.848;8.924;2022-12-07T03:50:31;97387.00;;;18.08;100.00
8697;BME280;4385;48.848;8.924;2022-12-07T03:53:22;97379.41;;;18.06;100.00
8697;BME280;4385;48.848;8.924;2022-12-07T03:55:50;97379.44;;;18.05;100.00
8697;BME280;4385;48.848;8.924;2022-12-07T03:58:20;97365.84;;;18.04;100.00
8697;BME280;4385;48.848;8.924;2022-12-07T04:00:47;97370.91;;;18.06;100.00
8697;BME280;4385;48.848;8.924;2022-12-07T04:03:13;97366.69;;;18.05;100.00
8697;BME280;4385;48.848;8.924;2022-12-07T04:05:39;97365.84;;;18.04;100.00
8697;BME280;4385;48.848;8.924;2022-12-07T04:08:04;97359.03;;;18.05;100.00
8697;BME280;4385;48.848;8.924;2022-12-07T04:10:30;97347.06;;;18.07;100.00
8697;BME280;4385;48.848;8.924;2022-12-07T04:12:55;97344.50;;;18.08;100.00
8697;BME280;4385;48.848;8.924;2022-12-07T04:15:20;97347.00;;;18.12;100.00
8697;BME280;4385;48.848;8.924;2022-12-07T04:17:46;97345.28;;;18.11;100.00
8697;BME280;4385;48.848;8.924;2022-12-07T04:20:11;97343.63;;;18.11;100.00
8697;BME280;4385;48.848;8.924;2022-12-07T04:22:37;97336.84;;;18.08;100.00
8697;BME280;4385;48.848;8.924;2022-12-07T04:25:02;97335.13;;;18.09;100.00
8697;BME280;4385;48.848;8.924;2022-12-07T04:27:28;97341.09;;;18.10;100.00
8697;BME280;4385;48.848;8.924;2022-12-07T04:29:53;97340.19;;;18.11;100.00
8697;BME280;4385;48.848;8.924;2022-12-07T04:32:20;97331.72;;;18.08;100.00
8697;BME280;4385;48.848;8.924;2022-12-07T04:34:45;97338.59;;;18.06;100.00
8697;BME280;4385;48.848;8.924;2022-12-07T04:37:11;97332.63;;;18.07;100.00
8697;BME280;4385;48.848;8.924;2022-12-07T04:39:36;97327.53;;;18.07;100.00
8697;BME280;4385;48.848;8.924;2022-12-07T04:42:02;97335.16;;;18.07;100.00
8697;BME280;4385;48.848;8.924;2022-12-07T04:44:28;97330.06;;;18.07;100.00
8697;BME280;4385;48.848;8.924;2022-12-07T04:46:54;97335.97;;;18.10;100.00
8697;BME280;4385;48.848;8.924;2022-12-07T04:49:20;97338.53;;;18.10;100.00
8697;BME280;4385;48.848;8.924;2022-12-07T04:51:46;97338.53;;;18.10;100.00
8697;BME280;4385;48.848;8.924;2022-12-07T04:54:13;97335.97;;;18.11;100.00
8697;BME280;4385;48.848;8.924;2022-12-07T04:56:39;97349.53;;;18.12;100.00
8697;BME280;4385;48.848;8.924;2022-12-07T04:59:05;97341.84;;;18.13;100.00
8697;BME280;4385;48.848;8.924;2022-12-07T05:01:31;97344.41;;;18.13;100.00
8697;BME280;4385;48.848;8.924;2022-12-07T05:03:56;97338.47;;;18.14;100.00
8697;BME280;4385;48.848;8.924;2022-12-07T05:06:22;97349.44;;;18.16;100.00
8697;BME280;4385;48.848;8.924;2022-12-07T05:08:47;97351.16;;;18.16;100.00
8697;BME280;4385;48.848;8.924;2022-12-07T05:11:13;97355.47;;;18.14;100.00
8697;BME280;4385;48.848;8.924;2022-12-07T05:13:58;97363.94;;;18.16;100.00
8697;BME280;4385;48.848;8.924;2022-12-07T05:16:23;97370.63;;;18.20;100.00
8697;BME280;4385;48.848;8.924;2022-12-07T05:18:49;97363.78;;;18.22;100.00
8697;BME280;4385;48.848;8.924;2022-12-07T05:21:14;97362.88;;;18.25;100.00
8697;BME280;4385;48.848;8.924;2022-12-07T05:23:40;97358.56;;;18.27;100.00
8697;BME280;4385;48.848;8.924;2022-12-07T05:26:05;97356.81;;;18.29;100.00
8697;BME280;4385;48.848;8.924;2022-12-07T05:28:30;97352.56;;;18.29;100.00
8697;BME280;4385;48.848;8.924;2022-12-07T05:30:56;97351.66;;;18.30;100.00
8697;BME280;4385;48.848;8.924;2022-12-07T05:33:21;97347.50;;;18.28;100.00
8697;BME280;4385;48.848;8.924;2022-12-07T05:35:46;97347.53;;;18.26;100.00
8697;BME280;4385;48.848;8.924;2022-12-07T05:38:11;97352.66;;;18.25;100.00
8697;BME280;4385;48.848;8.924;2022-12-07T05:40:37;97346.72;;;18.24;100.00
8697;BME280;4385;48.848;8.924;2022-12-07T05:43:02;97352.66;;;18.25;100.00
8697;BME280;4385;48.848;8.924;2022-12-07T05:45:27;97357.78;;;18.23;100.00
8697;BME280;4385;48.848;8.924;2022-12-07T05:47:52;97357.88;;;18.20;100.00
8697;BME280;4385;48.848;8.924;2022-12-07T05:50:18;97353.69;;;18.17;100.00
8697;BME280;4385;48.848;8.924;2022-12-07T05:52:43;97351.94;;;18.18;100.00
8697;BME280;4385;48.848;8.924;2022-12-07T05:55:08;97351.13;;;18.17;100.00
8697;BME280;4385;48.848;8.924;2022-12-07T05:57:33;97353.72;;;18.16;100.00
8697;BME280;4385;48.848;8.924;2022-12-07T05:59:59;97349.44;;;18.16;100.00
8697;BME280;4385;48.848;8.924;2022-12-07T06:02:24;97353.72;;;18.16;100.00
8697;BME280;4385;48.848;8.924;2022-12-07T06:04:49;97357.13;;;18.15;100.00
8697;BME280;4385;48.848;8.924;2022-12-07T06:07:15;97361.41;;;18.14;100.00
8697;BME280;4385;48.848;8.924;2022-12-07T06:09:41;97353.78;;;18.13;100.00
8697;BME280;4385;48.848;8.924;2022-12-07T06:12:10;97357.19;;;18.12;100.00
8697;BME280;4385;48.848;8.924;2022-12-07T06:14:54;97359.75;;;18.12;100.00
8697;BME280;4385;48.848;8.924;2022-12-07T06:17:19;97354.66;;;18.10;100.00
8697;BME280;4385;48.848;8.924;2022-12-07T06:19:45;97366.59;;;18.11;100.00
8697;BME280;4385;48.848;8.924;2022-12-07T06:22:11;97358.94;;;18.10;100.00
8697;BME280;4385;48.848;8.924;2022-12-07T06:24:37;97364.09;;;18.06;100.00
8697;BME280;4385;48.848;8.924;2022-12-07T06:27:02;97365.84;;;18.04;100.00
8697;BME280;4385;48.848;8.924;2022-12-07T06:29:28;97369.31;;;18.02;100.00
8697;BME280;4385;48.848;8.924;2022-12-07T06:31:53;97359.22;;;17.97;100.00
8697;BME280;4385;48.848;8.924;2022-12-07T06:34:20;97365.19;;;17.94;100.00
8697;BME280;4385;48.848;8.924;2022-12-07T06:36:48;97364.47;;;17.89;100.00
8697;BME280;4385;48.848;8.924;2022-12-07T06:39:17;97359.47;;;17.85;100.00
8697;BME280;4385;48.848;8.924;2022-12-07T06:41:43;97357.00;;;17.81;100.00
8697;BME280;4385;48.848;8.924;2022-12-07T06:44:08;97368.09;;;17.77;100.00
8697;BME280;4385;48.848;8.924;2022-12-07T06:46:34;97363.03;;;17.76;100.00
8697;BME280;4385;48.848;8.924;2022-12-07T06:49:00;97359.69;;;17.75;100.00
8697;BME280;4385;48.848;8.924;2022-12-07T06:51:26;97356.31;;;17.73;100.00
8697;BME280;4385;48.848;8.924;2022-12-07T06:53:51;97349.53;;;17.72;100.00
8697;BME280;4385;48.848;8.924;2022-12-07T06:56:16;97353.78;;;17.72;100.00
8697;BME280;4385;48.848;8.924;2022-12-07T06:58:41;97356.31;;;17.73;100.00
8697;BME280;4385;48.848;8.924;2022-12-07T07:01:11;97360.50;;;17.76;100.00
8697;BME280;4385;48.848;8.924;2022-12-07T07:03:37;97358.75;;;17.78;100.00
8697;BME280;4385;48.848;8.924;2022-12-07T07:06:03;97357.06;;;17.78;100.00
8697;BME280;4385;48.848;8.924;2022-12-07T07:08:29;97363.81;;;17.79;100.00
8697;BME280;4385;48.848;8.924;2022-12-07T07:10:54;97361.28;;;17.79;100.00
8697;BME280;4385;48.848;8.924;2022-12-07T07:13:19;97361.25;;;17.81;100.00
8697;BME280;4385;48.848;8.924;2022-12-07T07:15:44;97356.19;;;17.79;100.00
8697;BME280;4385;48.848;8.924;2022-12-07T07:18:10;97363.84;;;17.78;100.00
8697;BME280;4385;48.848;8.924;2022-12-07T07:20:35;97366.41;;;17.78;100.00
8697;BME280;4385;48.848;8.924;2022-12-07T07:23:00;97363.06;;;17.74;100.00
8697;BME280;4385;48.848;8.924;2022-12-07T07:25:26;97362.31;;;17.70;100.00
8697;BME280;4385;48.848;8.924;2022-12-07T07:27:51;97356.50;;;17.64;100.00
8697;BME280;4385;48.848;8.924;2022-12-07T07:30:16;97360.00;;;17.60;100.00
8697;BME280;4385;48.848;8.924;2022-12-07T07:32:41;97364.28;;;17.57;100.00
8697;BME280;4385;48.848;8.924;2022-12-07T07:35:07;97371.97;;;17.54;100.00
8697;BME280;4385;48.848;8.924;2022-12-07T07:37:33;97372.03;;;17.51;100.00
8697;BME280;4385;48.848;8.924;2022-12-07T07:39:58;97373.00;;;17.47;100.00
8697;BME280;4385;48.848;8.924;2022-12-07T07:42:24;97380.69;;;17.44;100.00
8697;BME280;4385;48.848;8.924;2022-12-07T07:44:49;97383.31;;;17.41;100.00
8697;BME280;4385;48.848;8.924;2022-12-07T07:47:14;97378.22;;;17.39;100.00
8697;BME280;4385;48.848;8.924;2022-12-07T07:49:39;97375.66;;;17.41;100.00
8697;BME280;4385;48.848;8.924;2022-12-07T07:52:05;97379.81;;;17.45;100.00
8697;BME280;4385;48.848;8.924;2022-12-07T07:54:31;97382.22;;;17.51;100.00
8697;BME280;4385;48.848;8.924;2022-12-07T07:56:56;97381.22;;;17.58;100.00
8697;BME280;4385;48.848;8.924;2022-12-07T07:59:22;97385.44;;;17.61;100.00
8697;BME280;4385;48.848;8.924;2022-12-07T08:01:47;97390.47;;;17.64;100.00
8697;BME280;4385;48.848;8.924;2022-12-07T08:04:12;97388.75;;;17.65;100.00
8697;BME280;4385;48.848;8.924;2022-12-07T08:06:38;97393.78;;;17.68;100.00
8697;BME280;4385;48.848;8.924;2022-12-07T08:09:03;97389.47;;;17.72;100.00
8697;BME280;4385;48.848;8.924;2022-12-07T08:11:30;97397.03;;;17.76;100.00
8697;BME280;4385;48.848;8.924;2022-12-07T08:13:56;97384.25;;;17.78;100.00
8697;BME280;4385;48.848;8.924;2022-12-07T08:16:21;97390.13;;;17.81;100.00
8697;BME280;4385;48.848;8.924;2022-12-07T08:18:46;97389.22;;;17.84;100.00
8697;BME280;4385;48.848;8.924;2022-12-07T08:21:13;97390.75;;;17.91;100.00
8697;BME280;4385;48.848;8.924;2022-12-07T08:23:39;97388.00;;;18.01;100.00
8697;BME280;4385;48.848;8.924;2022-12-07T08:26:07;97387.88;;;18.07;100.00
8697;BME280;4385;48.848;8.924;2022-12-07T08:28:33;97389.47;;;18.14;100.00
8697;BME280;4385;48.848;8.924;2022-12-07T08:31:03;97397.78;;;18.21;100.00
8697;BME280;4385;48.848;8.924;2022-12-07T08:33:30;97396.84;;;18.27;100.00
8697;BME280;4385;48.848;8.924;2022-12-07T08:36:03;97395.84;;;18.32;100.00
8697;BME280;4385;48.848;8.924;2022-12-07T08:38:29;97402.56;;;18.35;100.00
8697;BME280;4385;48.848;8.924;2022-12-07T08:40:55;97405.09;;;18.37;100.00
8697;BME280;4385;48.848;8.924;2022-12-07T08:43:20;97400.81;;;18.39;100.00
8697;BME280;4385;48.848;8.924;2022-12-07T08:45:52;97400.72;;;18.42;100.00
8697;BME280;4385;48.848;8.924;2022-12-07T08:48:18;97404.91;;;18.44;100.00
8697;BME280;4385;48.848;8.924;2022-12-07T08:50:47;97404.88;;;18.46;100.00
8697;BME280;4385;48.848;8.924;2022-12-07T08:53:12;97399.75;;;18.48;100.00
8697;BME280;4385;48.848;8.924;2022-12-07T08:55:38;97404.84;;;18.48;100.00
8697;BME280;4385;48.848;8.924;2022-12-07T08:58:03;97401.41;;;18.50;100.00
8697;BME280;4385;48.848;8.924;2022-12-07T09:00:28;97403.88;;;18.53;100.00
8697;BME280;4385;48.848;8.924;2022-12-07T09:02:54;97397.00;;;18.55;100.00
8697;BME280;4385;48.848;8.924;2022-12-07T09:05:20;97402.88;;;18.59;100.00
8697;BME280;4385;48.848;8.924;2022-12-07T09:07:49;97395.13;;;18.64;100.00
8697;BME280;4385;48.848;8.924;2022-12-07T09:10:15;97396.69;;;18.68;100.00
8697;BME280;4385;48.848;8.924;2022-12-07T09:12:41;97394.97;;;18.70;100.00
8697;BME280;4385;48.848;8.924;2022-12-07T09:15:06;97400.00;;;18.73;100.00
8697;BME280;4385;48.848;8.924;2022-12-07T09:17:33;97401.66;;;18.74;100.00
8697;BME280;4385;48.848;8.924;2022-12-07T09:19:59;97404.13;;;18.77;100.00
8697;BME280;4385;48.848;8.924;2022-12-07T09:22:28;97402.41;;;18.79;100.00
8697;BME280;4385;48.848;8.924;2022-12-07T09:24:53;97401.50;;;18.80;100.00
8697;BME280;4385;48.848;8.924;2022-12-07T09:27:19;97394.56;;;18.86;100.00
8697;BME280;4385;48.848;8.924;2022-12-07T09:29:44;97394.50;;;18.89;100.00
8697;BME280;4385;48.848;8.924;2022-12-07T09:32:09;97391.91;;;18.90;100.00
8697;BME280;4385;48.848;8.924;2022-12-07T09:34:35;97398.72;;;18.90;100.00
8697;BME280;4385;48.848;8.924;2022-12-07T09:37:00;97397.09;;;18.87;100.00
8697;BME280;4385;48.848;8.924;2022-12-07T09:39:26;97393.72;;;18.85;100.00
8697;BME280;4385;48.848;8.924;2022-12-07T09:41:51;97403.94;;;18.85;100.00
8697;BME280;4385;48.848;8.924;2022-12-07T09:44:23;97400.75;;;18.77;100.00
8697;BME280;4385;48.848;8.924;2022-12-07T09:46:49;97394.94;;;18.72;100.00
8697;BME280;4385;48.848;8.924;2022-12-07T09:49:24;97402.66;;;18.68;100.00
8697;BME280;4385;48.848;8.924;2022-12-07T09:54:35;97386.56;;;18.65;100.00
8697;BME280;4385;48.848;8.924;2022-12-07T09:57:01;97395.13;;;18.64;100.00
8697;BME280;4385;48.848;8.924;2022-12-07T09:59:27;97386.56;;;18.65;100.00
8697;BME280;4385;48.848;8.924;2022-12-07T10:01:52;97377.97;;;18.69;100.00
8697;BME280;4385;48.848;8.924;2022-12-07T10:04:25;97384.69;;;18.73;100.00
8697;BME280;4385;48.848;8.924;2022-12-07T10:06:51;97376.06;;;18.77;100.00
8697;BME280;4385;48.848;8.924;2022-12-07T10:09:20;97366.66;;;18.79;100.00
8697;BME280;4385;48.848;8.924;2022-12-07T10:14:26;97358.91;;;18.82;100.00
8697;BME280;4385;48.848;8.924;2022-12-07T10:16:52;97368.34;;;18.79;100.00
8697;BME280;4385;48.848;8.924;2022-12-07T10:22:04;97357.66;;;18.66;100.00
8697;BME280;4385;48.848;8.924;2022-12-07T10:24:31;97362.91;;;18.60;100.00
8697;BME280;4385;48.848;8.924;2022-12-07T10:26:57;97364.78;;;18.51;100.00
8697;BME280;4385;48.848;8.924;2022-12-07T10:29:46;97357.34;;;18.42;100.00
8697;BME280;4385;48.848;8.924;2022-12-07T10:34:42;97360.28;;;18.26;100.00
8697;BME280;4385;48.848;8.924;2022-12-07T10:39:55;97363.00;;;18.18;100.00
8697;BME280;4385;48.848;8.924;2022-12-07T10:42:29;97357.94;;;18.17;100.00
8697;BME280;4385;48.848;8.924;2022-12-07T10:45:09;97351.13;;;18.17;100.00
8697;BME280;4385;48.848;8.924;2022-12-07T10:59:00;97342.53;;;18.22;100.00
8697;BME280;4385;48.848;8.924;2022-12-07T11:01:33;97339.94;;;18.23;100.00
8697;BME280;4385;48.848;8.924;2022-12-07T11:04:14;97346.72;;;18.24;100.00
8697;BME280;4385;48.848;8.924;2022-12-07T11:07:02;97339.06;;;18.24;100.00
8697;BME280;4385;48.848;8.924;2022-12-07T11:09:52;97339.91;;;18.25;100.00
8697;BME280;4385;48.848;8.924;2022-12-07T11:15:16;97339.88;;;18.26;100.00
8697;BME280;4385;48.848;8.924;2022-12-07T11:18:09;97331.34;;;18.27;100.00
8697;BME280;4385;48.848;8.924;2022-12-07T11:21:09;97326.97;;;18.32;100.00
8697;BME280;4385;48.848;8.924;2022-12-07T11:23:51;97327.78;;;18.35;100.00
8697;BME280;4385;48.848;8.924;2022-12-07T11:26:34;97330.34;;;18.35;100.00
8697;BME280;4385;48.848;8.924;2022-12-07T11:34:40;97321.88;;;18.32;100.00
8697;BME280;4385;48.848;8.924;2022-12-07T11:37:12;97322.78;;;18.30;100.00
8697;BME280;4385;48.848;8.924;2022-12-07T11:39:51;97318.59;;;18.27;100.00
8697;BME280;4385;48.848;8.924;2022-12-07T11:42:41;97315.19;;;18.28;100.00
8697;BME280;4385;48.848;8.924;2022-12-07T11:45:15;97315.97;;;18.30;100.00
8697;BME280;4385;48.848;8.924;2022-12-07T11:47:52;97315.81;;;18.37;100.00
8697;BME280;4385;48.848;8.924;2022-12-07T11:55:52;97300.13;;;18.52;100.00
8697;BME280;4385;48.848;8.924;2022-12-07T11:58:42;97301.72;;;18.56;100.00
8697;BME280;4385;48.848;8.924;2022-12-07T12:03:50;97299.03;;;18.63;100.00
8697;BME280;4385;48.848;8.924;2022-12-07T12:06:16;97298.13;;;18.64;100.00
8697;BME280;4385;48.848;8.924;2022-12-07T12:17:29;97291.22;;;18.69;100.00
8697;BME280;4385;48.848;8.924;2022-12-07T12:22:44;97291.38;;;18.63;100.00
8697;BME280;4385;48.848;8.924;2022-12-07T12:25:28;97292.34;;;18.57;100.00
8697;BME280;4385;48.848;8.924;2022-12-07T12:27:57;97278.84;;;18.53;100.00
8697;BME280;4385;48.848;8.924;2022-12-07T12:30:44;97282.34;;;18.49;100.00
8697;BME280;4385;48.848;8.924;2022-12-07T12:33:29;97280.78;;;18.43;100.00
8697;BME280;4385;48.848;8.924;2022-12-07T12:36:18;97276.69;;;18.38;100.00
8697;BME280;4385;48.848;8.924;2022-12-07T12:44:01;97280.41;;;18.24;100.00
8697;BME280;4385;48.848;8.924;2022-12-07T12:51:42;97274.66;;;18.16;100.00
8697;BME280;4385;48.848;8.924;2022-12-07T12:54:18;97276.28;;;18.18;100.00
8697;BME280;4385;48.848;8.924;2022-12-07T12:56:49;97274.56;;;18.21;100.00
8697;BME280;4385;48.848;8.924;2022-12-07T12:59:29;97265.97;;;18.23;100.00
8697;BME280;4385;48.848;8.924;2022-12-07T13:02:10;97263.34;;;18.26;100.00
8697;BME280;4385;48.848;8.924;2022-12-07T13:04:51;97259.06;;;18.28;100.00
8697;BME280;4385;48.848;8.924;2022-12-07T13:21:00;97247.91;;;18.32;100.00
8697;BME280;4385;48.848;8.924;2022-12-07T13:23:32;97244.53;;;18.30;100.00
8697;BME280;4385;48.848;8.924;2022-12-07T13:28:40;97244.63;;;18.27;100.00
8697;BME280;4385;48.848;8.924;2022-12-07T13:31:34;97241.38;;;18.22;100.00
8697;BME280;4385;48.848;8.924;2022-12-07T13:34:02;97238.09;;;18.17;100.00
8697;BME280;4385;48.848;8.924;2022-12-07T13:36:33;97238.19;;;18.12;100.00
8697;BME280;4385;48.848;8.924;2022-12-07T13:41:41;97246.75;;;18.10;100.00
8697;BME280;4385;48.848;8.924;2022-12-07T13:44:17;97243.38;;;18.07;100.00
8697;BME280;4385;48.848;8.924;2022-12-07T13:46:53;97240.94;;;18.03;100.00
8697;BME280;4385;48.848;8.924;2022-12-07T13:49:26;97237.63;;;17.99;100.00
8697;BME280;4385;48.848;8.924;2022-12-07T13:51:53;97232.56;;;17.98;100.00
8697;BME280;4385;48.848;8.924;2022-12-07T13:54:19;97238.47;;;18.00;100.00
8697;BME280;4385;48.848;8.924;2022-12-07T13:56:48;97240.97;;;18.01;100.00
8697;BME280;4385;48.848;8.924;2022-12-07T13:59:25;97237.44;;;18.07;100.00
8697;BME280;4385;48.848;8.924;2022-12-07T14:01:52;97236.50;;;18.13;100.00
8697;BME280;4385;48.848;8.924;2022-12-07T14:06:52;97237.84;;;18.26;100.00
8697;BME280;4385;48.848;8.924;2022-12-07T14:09:22;97245.34;;;18.32;100.00
8697;BME280;4385;48.848;8.924;2022-12-07T14:11:49;97235.88;;;18.38;100.00
8697;BME280;4385;48.848;8.924;2022-12-07T14:14:19;97225.59;;;18.41;100.00
8697;BME280;4385;48.848;8.924;2022-12-07T14:16:56;97233.25;;;18.41;100.00
8697;BME280;4385;48.848;8.924;2022-12-07T14:22:38;97232.50;;;18.36;100.00
8697;BME280;4385;48.848;8.924;2022-12-07T14:28:00;97230.13;;;18.29;100.00
8697;BME280;4385;48.848;8.924;2022-12-07T14:30:34;97230.25;;;18.25;100.00
8697;BME280;4385;48.848;8.924;2022-12-07T14:33:02;97226.91;;;18.21;100.00
8697;BME280;4385;48.848;8.924;2022-12-07T14:35:29;97223.66;;;18.16;100.00
8697;BME280;4385;48.848;8.924;2022-12-07T14:37:55;97231.41;;;18.13;100.00
8697;BME280;4385;48.848;8.924;2022-12-07T14:40:22;97236.53;;;18.10;100.00
8697;BME280;4385;48.848;8.924;2022-12-07T14:42:52;97238.34;;;18.04;100.00
8697;BME280;4385;48.848;8.924;2022-12-07T14:45:21;97238.44;;;18.01;100.00
8697;BME280;4385;48.848;8.924;2022-12-07T14:47:46;97237.63;;;17.99;100.00
8697;BME280;4385;48.848;8.924;2022-12-07T14:50:14;97232.59;;;17.96;100.00
8697;BME280;4385;48.848;8.924;2022-12-07T14:52:42;97235.16;;;17.96;100.00
8697;BME280;4385;48.848;8.924;2022-12-07T14:55:19;97245.25;;;17.99;100.00
8697;BME280;4385;48.848;8.924;2022-12-07T14:57:45;97246.06;;;18.01;100.00
8697;BME280;4385;48.848;8.924;2022-12-07T15:00:14;97244.31;;;18.05;100.00
8697;BME280;4385;48.848;8.924;2022-12-07T15:02:40;97246.75;;;18.10;100.00
8697;BME280;4385;48.848;8.924;2022-12-07T15:05:05;97249.28;;;18.11;100.00
8697;BME280;4385;48.848;8.924;2022-12-07T15:07:30;97253.38;;;18.17;100.00
8697;BME280;4385;48.848;8.924;2022-12-07T15:09:56;97246.53;;;18.19;100.00